Time;durP1;ratioP1;P1;durP2;ratioP2;P2;SDS_P1;SDS_P2;PMS_P1;PMS_P2;Temp;Humidity;BMP_temperature;BMP_pressure;BME280_temperature;BME280_humidity;BME280_pressure;Samples;Min_cycle;Max_cycle;Signal;HPM_P1;HPM_P2
2022/03/24 00:00:58;;;;;;;15.00;8.70;;;23.00;45.70;;;;;;215545;1296;23197;-56
2022/03/24 00:06:04;;;;;;;16.50;8.80;;;23.30;45.00;;;;;;215151;1296;24478;-56
2022/03/24 00:11:08;;;;;;;17.00;8.20;;;23.60;44.50;;;;;;215335;1296;22626;-54
2022/03/24 00:16:15;;;;;;;18.60;8.20;;;23.70;44.20;;;;;;215176;1295;22610;-53
2022/03/24 00:21:24;;;;;;;13.00;7.90;;;23.80;44.00;;;;;;215413;1296;22769;-53
2022/03/24 00:26:32;;;;;;;17.20;8.30;;;23.90;43.60;;;;;;215487;1296;25513;-54
2022/03/24 00:31:39;;;;;;;12.60;7.90;;;23.90;43.00;;;;;;215059;1296;25497;-55
2022/03/24 00:36:51;;;;;;;13.30;7.70;;;24.00;43.30;;;;;;215515;1296;22607;-55
2022/03/24 00:42:09;;;;;;;12.50;7.80;;;24.10;43.20;;;;;;215338;1296;25391;-54
2022/03/24 00:47:18;;;;;;;14.60;8.80;;;24.10;43.30;;;;;;215514;1296;22808;-54
2022/03/24 00:52:43;;;;;;;12.90;7.40;;;24.20;42.90;;;;;;215525;1296;24361;-60
2022/03/24 00:57:54;;;;;;;12.80;8.40;;;24.30;42.80;;;;;;215542;1296;24328;-60
2022/03/24 01:03:06;;;;;;;12.20;7.90;;;24.30;42.60;;;;;;215436;1296;24463;-56
2022/03/24 01:08:16;;;;;;;12.90;8.20;;;24.30;42.80;;;;;;215406;1296;25338;-53
2022/03/24 01:13:21;;;;;;;15.80;8.50;;;24.20;43.20;;;;;;215908;1296;22642;-56
2022/03/24 01:18:25;;;;;;;11.90;7.70;;;24.10;42.90;;;;;;215884;1296;22668;-55
2022/03/24 01:23:30;;;;;;;11.20;7.30;;;24.00;43.20;;;;;;215482;1296;22588;-58
2022/03/24 01:28:35;;;;;;;11.30;8.00;;;23.90;43.20;;;;;;215508;1296;24330;-55
2022/03/24 01:33:41;;;;;;;13.70;8.30;;;23.80;43.50;;;;;;215367;1294;22574;-56
2022/03/24 01:38:46;;;;;;;12.70;8.60;;;23.70;43.40;;;;;;215234;1293;22658;-55
2022/03/24 01:43:52;;;;;;;13.40;8.70;;;23.60;43.60;;;;;;215692;1296;22616;-56
2022/03/24 01:48:56;;;;;;;14.20;8.20;;;23.50;43.60;;;;;;215252;1296;26669;-53
2022/03/24 01:53:59;;;;;;;12.80;8.20;;;23.40;44.10;;;;;;215688;1296;22570;-54
2022/03/24 01:59:03;;;;;;;12.60;8.80;;;23.30;43.90;;;;;;215324;1296;24367;-56
2022/03/24 02:04:09;;;;;;;13.20;8.50;;;23.30;44.00;;;;;;215487;1296;22800;-55
2022/03/24 02:09:13;;;;;;;14.10;9.20;;;23.20;44.00;;;;;;215196;1296;22578;-55
2022/03/24 02:14:17;;;;;;;13.70;8.80;;;23.20;44.20;;;;;;215333;1296;25297;-54
2022/03/24 02:19:28;;;;;;;;;;;23.10;44.30;;;;;;215230;1296;22574;-55
2022/03/24 02:24:31;;;;;;;15.20;9.40;;;23.00;44.30;;;;;;215397;1296;22592;-56
2022/03/24 02:29:36;;;;;;;14.10;9.00;;;23.00;44.40;;;;;;215217;1296;22624;-56
2022/03/24 02:34:50;;;;;;;13.30;9.20;;;23.00;44.50;;;;;;215236;1295;25464;-55
2022/03/24 02:39:57;;;;;;;17.60;9.30;;;22.90;44.50;;;;;;215820;1296;25306;-54
2022/03/24 02:45:06;;;;;;;12.80;9.00;;;22.80;45.30;;;;;;215579;1296;23176;-53
2022/03/24 02:50:10;;;;;;;15.30;9.20;;;22.80;44.70;;;;;;215355;1296;22631;-59
2022/03/24 02:55:34;;;;;;;14.50;9.60;;;22.70;45.20;;;;;;215366;1296;22827;-55
2022/03/24 03:00:38;;;;;;;14.30;9.30;;;22.70;44.90;;;;;;215500;1296;22557;-57
2022/03/24 03:05:41;;;;;;;14.80;9.60;;;22.70;45.00;;;;;;215232;1296;23397;-55
2022/03/24 03:10:51;;;;;;;14.80;9.50;;;22.60;45.00;;;;;;215227;1296;24359;-58
2022/03/24 03:16:00;;;;;;;15.70;8.70;;;22.50;45.00;;;;;;215547;1296;22582;-58
2022/03/24 03:21:05;;;;;;;14.50;8.80;;;22.60;45.20;;;;;;215550;1296;23190;-53
2022/03/24 03:26:11;;;;;;;14.80;8.20;;;22.70;45.30;;;;;;215441;1296;25356;-57
2022/03/24 03:31:14;;;;;;;12.10;8.00;;;23.00;44.30;;;;;;215852;1296;25305;-57
2022/03/24 03:36:19;;;;;;;16.50;9.00;;;23.30;43.90;;;;;;215402;1296;22592;-55
2022/03/24 03:41:23;;;;;;;13.30;8.50;;;23.60;43.30;;;;;;215754;1296;22596;-54
2022/03/24 03:46:27;;;;;;;17.90;9.00;;;23.80;42.90;;;;;;215889;1296;22560;-57
2022/03/24 03:51:31;;;;;;;15.80;9.20;;;23.80;43.00;;;;;;215220;1296;22670;-55
2022/03/24 03:56:37;;;;;;;14.40;9.20;;;23.90;42.80;;;;;;215346;1296;25594;-57
2022/03/24 04:01:41;;;;;;;15.40;9.80;;;24.00;42.40;;;;;;215772;1296;22592;-55
2022/03/24 04:06:45;;;;;;;13.70;8.50;;;24.10;42.20;;;;;;215542;1296;22785;-54
2022/03/24 04:11:49;;;;;;;13.80;8.60;;;24.20;42.00;;;;;;215853;1296;25360;-54
2022/03/24 04:16:57;;;;;;;14.20;9.10;;;24.20;41.80;;;;;;215494;1296;22700;-56
2022/03/24 04:22:01;;;;;;;14.30;9.00;;;24.30;41.70;;;;;;215606;1296;22590;-55
2022/03/24 04:27:06;;;;;;;12.80;8.70;;;24.30;41.60;;;;;;215596;1296;24313;-54
2022/03/24 04:32:09;;;;;;;13.00;9.30;;;24.30;41.50;;;;;;215607;1295;22590;-59
2022/03/24 04:37:15;;;;;;;14.00;9.60;;;24.50;41.50;;;;;;215672;1295;25708;-54
2022/03/24 04:42:18;;;;;;;13.80;9.10;;;24.30;41.50;;;;;;215562;1296;24354;-57
2022/03/24 04:47:22;;;;;;;14.70;8.90;;;24.30;41.70;;;;;;215144;1296;279726;-54
2022/03/24 04:52:25;;;;;;;15.80;10.80;;;24.10;41.90;;;;;;215352;1296;22601;-55
2022/03/24 04:57:29;;;;;;;14.70;10.20;;;23.90;42.00;;;;;;215650;1293;24360;-54
2022/03/24 05:02:33;;;;;;;14.10;9.60;;;23.90;42.20;;;;;;215252;1296;25644;-55
2022/03/24 05:07:37;;;;;;;15.40;10.10;;;23.80;42.50;;;;;;215787;1296;22627;-57
2022/03/24 05:12:41;;;;;;;15.40;10.00;;;23.70;42.70;;;;;;215451;1296;22659;-54
2022/03/24 05:17:44;;;;;;;15.90;10.70;;;23.60;42.70;;;;;;215591;1296;22599;-59
2022/03/24 05:22:48;;;;;;;14.60;10.30;;;23.50;42.80;;;;;;215419;1296;23985;-50
2022/03/24 05:27:52;;;;;;;13.80;9.60;;;23.40;43.40;;;;;;215687;1296;22572;-55
2022/03/24 05:32:55;;;;;;;15.50;10.50;;;23.30;43.20;;;;;;215548;1296;22831;-54
2022/03/24 05:37:59;;;;;;;14.30;10.10;;;23.30;43.30;;;;;;215168;1295;22806;-57
2022/03/24 05:43:03;;;;;;;15.90;10.80;;;23.20;43.30;;;;;;215417;1296;22575;-57
2022/03/24 05:48:09;;;;;;;16.50;10.70;;;23.20;43.50;;;;;;215198;1296;25417;-55
2022/03/24 05:53:54;;;;;;;14.30;10.40;;;23.10;43.60;;;;;;215716;1296;22776;-52
2022/03/24 05:59:16;;;;;;;17.10;10.90;;;23.00;43.70;;;;;;215627;1296;24466;-55
2022/03/24 06:04:48;;;;;;;15.00;10.10;;;22.90;43.70;;;;;;215275;1296;24341;-54
2022/03/24 06:09:52;;;;;;;15.40;10.60;;;22.90;44.00;;;;;;215496;1296;25287;-55
2022/03/24 06:14:56;;;;;;;17.10;10.90;;;22.80;44.10;;;;;;215477;1296;22588;-54
2022/03/24 06:20:01;;;;;;;14.80;10.30;;;22.80;44.10;;;;;;214993;1296;24300;-55
2022/03/24 06:25:06;;;;;;;15.70;10.40;;;22.80;43.70;;;;;;215183;1296;24267;-52
2022/03/24 06:30:10;;;;;;;15.80;10.60;;;22.70;44.20;;;;;;215712;1296;26521;-57
2022/03/24 06:35:14;;;;;;;18.00;11.10;;;22.70;44.40;;;;;;215050;1296;23174;-50
2022/03/24 06:40:19;;;;;;;15.80;11.40;;;22.70;44.30;;;;;;214905;1296;24274;-57
2022/03/24 06:45:23;;;;;;;17.50;10.80;;;22.70;44.30;;;;;;215646;1296;24346;-53
2022/03/24 06:50:28;;;;;;;18.20;11.80;;;22.70;44.60;;;;;;215388;1296;25365;-55
2022/03/24 06:55:32;;;;;;;19.00;11.40;;;22.70;45.20;;;;;;215237;1296;25783;-56
2022/03/24 07:00:38;;;;;;;29.50;11.40;;;22.70;45.60;;;;;;215548;1296;23381;-54
2022/03/24 07:05:42;;;;;;;22.20;11.80;;;22.70;47.30;;;;;;215326;1294;22638;-54
2022/03/24 07:10:46;;;;;;;19.70;11.40;;;22.70;48.40;;;;;;215323;1296;24357;-54
2022/03/24 07:15:50;;;;;;;23.30;11.00;;;22.70;49.10;;;;;;215276;1296;25295;-54
2022/03/24 07:20:54;;;;;;;25.70;11.10;;;22.70;49.20;;;;;;215015;1296;25463;-53
2022/03/24 07:25:57;;;;;;;23.30;11.80;;;22.70;49.40;;;;;;215209;1296;27735;-53
2022/03/24 07:31:13;;;;;;;20.90;10.50;;;22.70;49.30;;;;;;215019;1296;22688;-56
2022/03/24 07:36:24;;;;;;;20.00;11.10;;;22.60;49.20;;;;;;215361;1296;25255;-55
2022/03/24 07:41:34;;;;;;;17.90;10.70;;;22.70;48.80;;;;;;214979;1296;23962;-53
2022/03/24 07:46:38;;;;;;;21.80;11.80;;;22.60;48.70;;;;;;215080;1296;24290;-52
2022/03/24 07:51:42;;;;;;;19.20;10.80;;;22.60;49.00;;;;;;215333;1296;22563;-57
2022/03/24 07:56:46;;;;;;;24.20;11.20;;;22.60;48.40;;;;;;215083;1296;22794;-57
2022/03/24 08:01:49;;;;;;;23.70;12.60;;;22.60;48.70;;;;;;214981;1296;22594;-54
2022/03/24 08:06:55;;;;;;;20.80;10.60;;;22.70;48.60;;;;;;215105;1296;22592;-54
2022/03/24 08:11:59;;;;;;;18.10;10.30;;;22.60;48.60;;;;;;216951;1296;22219;-55
2022/03/24 08:17:09;;;;;;;21.30;10.50;;;22.60;48.30;;;;;;215824;1296;25361;-56
2022/03/24 08:22:13;;;;;;;19.70;10.80;;;22.70;47.50;;;;;;215126;1296;22570;-54
2022/03/24 08:27:19;;;;;;;20.20;11.80;;;22.70;47.60;;;;;;214729;1296;22588;-60
2022/03/24 08:32:31;;;;;;;19.00;10.90;;;22.60;47.50;;;;;;215120;1296;24292;-56
2022/03/24 08:37:35;;;;;;;19.30;10.90;;;22.60;47.30;;;;;;215187;1296;22614;-58
2022/03/24 08:42:43;;;;;;;17.70;11.20;;;22.60;47.30;;;;;;215063;1296;24319;-55
2022/03/24 08:47:48;;;;;;;21.10;10.70;;;22.70;47.10;;;;;;215353;1296;26543;-56
2022/03/24 08:52:52;;;;;;;17.40;10.70;;;22.70;46.50;;;;;;214880;1298;24358;-58
2022/03/24 08:57:56;;;;;;;20.00;10.90;;;22.70;46.30;;;;;;215180;1296;24547;-56
2022/03/24 09:03:03;;;;;;;17.10;11.20;;;22.80;46.20;;;;;;214806;1299;25362;-56
2022/03/24 09:08:08;;;;;;;18.10;11.30;;;22.80;46.20;;;;;;214844;1296;23245;-57
2022/03/24 09:13:12;;;;;;;19.40;10.30;;;22.80;45.60;;;;;;214763;1296;26531;-58
2022/03/24 09:18:16;;;;;;;18.90;10.80;;;22.90;45.10;;;;;;214902;1296;22601;-55
2022/03/24 09:23:21;;;;;;;17.60;10.70;;;22.90;44.90;;;;;;214742;1296;22701;-56
2022/03/24 09:28:26;;;;;;;19.00;11.40;;;22.90;45.10;;;;;;214903;1296;22629;-56
2022/03/24 09:33:30;;;;;;;16.50;11.20;;;22.90;45.00;;;;;;215169;1296;22706;-56
2022/03/24 09:38:35;;;;;;;17.40;9.90;;;22.90;44.80;;;;;;215142;1296;22571;-58
2022/03/24 09:43:41;;;;;;;14.10;10.30;;;22.90;44.70;;;;;;215315;1296;22579;-62
2022/03/24 09:48:45;;;;;;;16.50;10.90;;;23.00;44.60;;;;;;215310;1296;22589;-55
2022/03/24 09:53:49;;;;;;;17.80;10.80;;;23.00;44.40;;;;;;215414;1296;24357;-59
2022/03/24 09:58:53;;;;;;;15.80;10.00;;;23.10;44.20;;;;;;215352;1296;26980;-57
2022/03/24 10:04:14;;;;;;;17.40;10.60;;;23.20;44.00;;;;;;215316;1296;25405;-54
2022/03/24 10:09:40;;;;;;;18.30;11.10;;;23.20;44.00;;;;;;215330;1296;22890;-56
2022/03/24 10:14:45;;;;;;;16.10;10.60;;;23.30;43.90;;;;;;215623;1296;25541;-58
2022/03/24 10:20:02;;;;;;;14.50;10.20;;;23.30;43.40;;;;;;215055;1296;22583;-53
2022/03/24 10:25:21;;;;;;;13.40;9.50;;;23.30;44.10;;;;;;215871;1296;22580;-55
2022/03/24 10:30:28;;;;;;;15.40;9.70;;;23.40;43.70;;;;;;215443;1297;22750;-55
2022/03/24 10:35:38;;;;;;;15.20;10.20;;;23.50;43.60;;;;;;215302;1296;22560;-54
2022/03/24 10:40:46;;;;;;;;;;;23.50;43.40;;;;;;215576;1296;25343;-55
2022/03/24 10:45:49;;;;;;;15.40;9.30;;;23.40;43.40;;;;;;215007;1296;22569;-55
2022/03/24 10:50:56;;;;;;;14.50;9.50;;;23.50;43.30;;;;;;215231;1296;23127;-53
2022/03/24 10:56:07;;;;;;;13.60;9.20;;;23.60;43.10;;;;;;215298;1296;23963;-55
2022/03/24 11:01:16;;;;;;;16.00;9.40;;;23.60;43.20;;;;;;215422;1297;22777;-58
2022/03/24 11:06:24;;;;;;;13.60;8.90;;;23.70;42.60;;;;;;215600;1296;22603;-55
2022/03/24 11:12:26;;;;;;;12.40;8.90;;;23.70;42.60;;;;;;215160;1298;24286;-54
2022/03/24 11:17:32;;;;;;;12.50;8.60;;;23.80;42.40;;;;;;215633;1296;22586;-54
2022/03/24 11:23:17;;;;;;;13.30;9.60;;;23.80;42.40;;;;;;215721;1298;22872;-55
2022/03/24 11:28:22;;;;;;;14.60;9.60;;;23.80;42.30;;;;;;215352;1296;22655;-58
2022/03/24 11:33:29;;;;;;;15.40;9.80;;;23.80;42.40;;;;;;215422;1299;22648;-54
2022/03/24 11:38:33;;;;;;;13.30;8.70;;;23.80;42.40;;;;;;215018;1296;25649;-54
2022/03/24 11:43:49;;;;;;;11.80;8.40;;;23.80;42.40;;;;;;215362;1298;24421;-59
2022/03/24 11:49:25;;;;;;;12.70;8.40;;;23.80;42.40;;;;;;215354;1296;25675;-52
2022/03/24 11:54:31;;;;;;;12.30;8.50;;;23.80;42.80;;;;;;215854;1297;24451;-59
2022/03/24 11:59:35;;;;;;;13.40;8.00;;;23.80;42.40;;;;;;215456;1297;23991;-52
2022/03/24 12:04:47;;;;;;;13.00;8.50;;;23.90;42.50;;;;;;215510;1297;25642;-53
2022/03/24 12:09:58;;;;;;;15.00;8.70;;;23.90;42.30;;;;;;215739;1295;22647;-56
2022/03/24 12:15:18;;;;;;;12.10;8.20;;;23.90;42.20;;;;;;215507;1294;27608;-54
2022/03/24 12:20:45;;;;;;;11.60;8.10;;;23.90;42.10;;;;;;215388;1298;23246;-52
2022/03/24 12:26:08;;;;;;;13.40;8.20;;;23.90;41.90;;;;;;215403;1296;22564;-53
2022/03/24 12:31:12;;;;;;;13.10;7.70;;;23.90;42.00;;;;;;215304;1296;22563;-56
2022/03/24 12:36:39;;;;;;;10.10;7.60;;;24.00;42.00;;;;;;215165;1299;22592;-58
2022/03/24 12:42:06;;;;;;;10.80;7.70;;;24.00;41.80;;;;;;215710;1297;25592;-56
2022/03/24 12:47:36;;;;;;;13.10;8.10;;;24.00;41.80;;;;;;215362;1297;22761;-52
2022/03/24 12:52:49;;;;;;;10.90;7.70;;;24.00;41.70;;;;;;215057;1296;22612;-59
2022/03/24 12:58:02;;;;;;;10.60;7.90;;;24.00;41.70;;;;;;215577;1296;24341;-55
2022/03/24 13:03:09;;;;;;;12.10;7.10;;;24.00;41.60;;;;;;215128;1296;22660;-56
2022/03/24 13:08:15;;;;;;;12.70;7.80;;;24.10;41.30;;;;;;215098;1296;24288;-53
2022/03/24 13:13:22;;;;;;;8.90;6.80;;;24.00;41.00;;;;;;215604;1296;22697;-54
2022/03/24 13:18:26;;;;;;;11.00;7.30;;;24.10;41.10;;;;;;215457;1296;25387;-56
2022/03/24 13:23:29;;;;;;;9.80;7.20;;;24.00;40.30;;;;;;215416;1297;22598;-55
2022/03/24 13:28:35;;;;;;;11.30;7.40;;;24.10;40.90;;;;;;215656;1297;22687;-58
2022/03/24 13:33:38;;;;;;;10.60;7.50;;;24.10;40.90;;;;;;215425;1296;24454;-53
2022/03/24 13:38:42;;;;;;;9.50;7.20;;;24.10;40.80;;;;;;215011;1296;22595;-59
2022/03/24 13:43:45;;;;;;;10.20;6.90;;;24.10;40.70;;;;;;215492;1296;22645;-55
2022/03/24 13:48:51;;;;;;;10.50;7.40;;;24.10;40.90;;;;;;215437;1296;22569;-54
2022/03/24 13:53:55;;;;;;;12.10;7.40;;;24.10;41.00;;;;;;215210;1296;23992;-53
2022/03/24 13:59:02;;;;;;;9.80;6.70;;;24.10;41.10;;;;;;215392;1296;22569;-53
2022/03/24 14:04:18;;;;;;;11.30;7.40;;;24.10;40.90;;;;;;215183;1296;25556;-55
2022/03/24 14:09:23;;;;;;;13.70;7.80;;;24.10;40.90;;;;;;214952;1296;24624;-53
2022/03/24 14:14:27;;;;;;;11.50;6.80;;;24.10;41.10;;;;;;215078;1296;25416;-51
2022/03/24 14:19:34;;;;;;;11.50;7.10;;;24.10;40.90;;;;;;214962;1296;24162;-54
2022/03/24 14:24:47;;;;;;;8.60;6.30;;;24.10;41.20;;;;;;215073;1296;22742;-53
2022/03/24 14:30:00;;;;;;;;;;;24.00;41.20;;;;;;215665;1296;22564;-55
2022/03/24 14:35:29;;;;;;;10.00;6.80;;;24.00;41.10;;;;;;215303;1296;22596;-57
2022/03/24 14:40:45;;;;;;;7.90;5.90;;;24.00;41.00;;;;;;215344;1296;25341;-54
2022/03/24 14:45:50;;;;;;;9.60;6.50;;;24.00;41.30;;;;;;215366;1296;25943;-56
2022/03/24 14:50:55;;;;;;;10.80;6.80;;;24.00;40.80;;;;;;215275;1294;24333;-51
2022/03/24 14:56:00;;;;;;;12.00;6.30;;;23.90;40.80;;;;;;214871;1296;23988;-53
2022/03/24 15:01:07;;;;;;;8.80;6.30;;;23.90;41.10;;;;;;214652;1297;25512;-56
2022/03/24 15:06:11;;;;;;;9.40;6.80;;;23.90;40.70;;;;;;215135;1296;22560;-55
2022/03/24 15:11:17;;;;;;;9.60;6.00;;;23.90;40.80;;;;;;215099;1296;22736;-53
2022/03/24 15:16:20;;;;;;;9.60;6.30;;;23.90;40.70;;;;;;215671;1296;25298;-55
2022/03/24 15:21:26;;;;;;;9.60;6.30;;;23.90;40.70;;;;;;215236;1296;23003;-53
2022/03/24 15:26:32;;;;;;;8.40;6.30;;;23.80;40.90;;;;;;214984;1296;25513;-54
2022/03/24 15:31:36;;;;;;;10.30;6.30;;;23.80;40.50;;;;;;215085;1296;22827;-56
2022/03/24 15:36:41;;;;;;;12.60;6.30;;;23.80;41.20;;;;;;215361;1296;24402;-60
2022/03/24 15:41:48;;;;;;;8.50;6.20;;;23.70;40.50;;;;;;215506;1296;23290;-52
2022/03/24 15:46:52;;;;;;;9.60;6.40;;;23.60;40.40;;;;;;215146;1296;22582;-54
2022/03/24 15:51:56;;;;;;;7.90;5.80;;;23.60;40.50;;;;;;215078;1296;24303;-55
2022/03/24 15:57:04;;;;;;;9.20;6.30;;;23.60;40.50;;;;;;215681;1295;25503;-57
2022/03/24 16:02:12;;;;;;;7.70;5.50;;;23.60;40.90;;;;;;215211;1296;24336;-55
2022/03/24 16:07:16;;;;;;;9.10;6.00;;;23.50;40.40;;;;;;215638;1296;25542;-60
2022/03/24 16:12:20;;;;;;;13.00;6.80;;;23.50;39.90;;;;;;214765;1296;25302;-59
2022/03/24 16:17:23;;;;;;;9.70;6.10;;;23.50;40.00;;;;;;214486;1296;22636;-60
2022/03/24 16:22:30;;;;;;;20.10;6.80;;;23.50;39.90;;;;;;222534;1296;23019;-55
2022/03/24 16:27:34;;;;;;;12.10;6.40;;;23.50;39.80;;;;;;222549;1296;22418;-58
2022/03/24 16:32:41;;;;;;;21.30;6.90;;;23.50;39.80;;;;;;222273;1296;22402;-58
2022/03/24 16:37:46;;;;;;;9.50;6.30;;;23.40;39.80;;;;;;221809;1295;25505;-57
2022/03/24 16:42:56;;;;;;;10.10;6.20;;;23.50;39.60;;;;;;222436;1295;23618;-57
2022/03/24 16:48:01;;;;;;;10.10;6.40;;;23.40;39.60;;;;;;215705;1296;275190;-56
2022/03/24 16:53:36;;;;;;;11.80;6.60;;;23.40;39.80;;;;;;222474;1296;22214;-56
2022/03/24 16:58:51;;;;;;;12.00;5.90;;;23.40;39.80;;;;;;222598;1298;22205;-56
2022/03/24 17:03:55;;;;;;;23.00;7.50;;;23.40;39.90;;;;;;220489;1295;22820;-56
2022/03/24 17:09:07;;;;;;;13.80;6.40;;;23.40;40.50;;;;;;215086;1296;25845;-58
2022/03/24 17:14:24;;;;;;;10.70;5.90;;;23.30;40.60;;;;;;215204;1296;22670;-58
2022/03/24 17:19:28;;;;;;;12.10;6.90;;;23.30;40.00;;;;;;215246;1296;22845;-57
2022/03/24 17:24:35;;;;;;;9.60;6.20;;;23.30;40.60;;;;;;215292;1296;24376;-60
2022/03/24 17:29:39;;;;;;;11.20;7.10;;;23.30;40.20;;;;;;214982;1296;22652;-57
2022/03/24 17:34:43;;;;;;;11.40;7.70;;;23.20;40.50;;;;;;214697;1296;24333;-56
2022/03/24 17:39:56;;;;;;;14.10;7.70;;;23.20;40.30;;;;;;214616;1296;24122;-54
2022/03/24 17:44:59;;;;;;;18.40;8.40;;;23.20;41.10;;;;;;214792;1296;22657;-58
2022/03/24 17:50:08;;;;;;;17.80;8.10;;;23.20;41.90;;;;;;215031;1296;24433;-59
2022/03/24 17:55:12;;;;;;;17.50;8.70;;;23.20;41.40;;;;;;217546;1296;22576;-57
2022/03/24 18:00:17;;;;;;;18.80;10.10;;;23.20;41.40;;;;;;214674;1296;25309;-59
2022/03/24 18:05:22;;;;;;;20.20;9.20;;;23.20;41.30;;;;;;222569;1298;23051;-55
2022/03/24 18:10:25;;;;;;;17.40;9.40;;;23.20;41.30;;;;;;219380;1296;25227;-62
2022/03/24 18:15:30;;;;;;;19.60;9.10;;;23.20;41.30;;;;;;215549;1296;22664;-62
2022/03/24 18:20:33;;;;;;;21.90;10.10;;;23.30;41.60;;;;;;215115;1293;22688;-60
2022/03/24 18:25:44;;;;;;;17.60;9.80;;;23.30;41.50;;;;;;214778;1294;25630;-63
2022/03/24 18:30:49;;;;;;;22.10;10.90;;;23.30;41.10;;;;;;215286;1296;22692;-57
2022/03/24 18:35:54;;;;;;;21.80;11.60;;;23.30;40.90;;;;;;214861;1296;24215;-58
2022/03/24 18:40:58;;;;;;;20.60;11.60;;;23.30;40.80;;;;;;214980;1296;22663;-62
2022/03/24 18:46:02;;;;;;;28.20;12.50;;;23.20;41.10;;;;;;215265;1296;22602;-61
2022/03/24 18:51:08;;;;;;;22.90;12.00;;;23.20;41.40;;;;;;215791;1296;22592;-58
2022/03/24 18:56:12;;;;;;;24.80;12.00;;;23.10;41.30;;;;;;215384;1296;22596;-59
2022/03/24 19:01:16;;;;;;;24.50;11.80;;;23.10;41.30;;;;;;215433;1296;25334;-58
2022/03/24 19:06:20;;;;;;;22.70;13.30;;;23.00;41.30;;;;;;215239;1296;22720;-59
2022/03/24 19:11:27;;;;;;;24.40;12.20;;;23.00;41.20;;;;;;215433;1296;23998;-62
2022/03/24 19:16:30;;;;;;;22.80;12.50;;;23.00;41.40;;;;;;215036;1295;22566;-59
2022/03/24 19:21:34;;;;;;;21.40;12.60;;;22.90;41.30;;;;;;215491;1296;25291;-58
2022/03/24 19:26:39;;;;;;;25.60;11.80;;;23.00;41.90;;;;;;215014;1296;24301;-59
2022/03/24 19:31:44;;;;;;;22.30;11.60;;;22.90;42.50;;;;;;215627;1296;22639;-58
2022/03/24 19:36:50;;;;;;;26.80;11.90;;;22.90;42.90;;;;;;215241;1296;22595;-64
2022/03/24 19:41:55;;;;;;;22.30;11.80;;;23.00;45.40;;;;;;215079;1296;25671;-56
2022/03/24 19:46:59;;;;;;;24.60;13.00;;;22.90;46.40;;;;;;215772;1296;22574;-58
2022/03/24 19:52:03;;;;;;;27.50;13.00;;;23.00;46.20;;;;;;215033;1296;24309;-59
2022/03/24 19:57:08;;;;;;;25.60;12.40;;;22.90;46.10;;;;;;214967;1296;22623;-56
2022/03/24 20:02:16;;;;;;;23.70;12.00;;;22.90;46.50;;;;;;215381;1295;22582;-58
2022/03/24 20:07:29;;;;;;;20.50;11.40;;;22.90;46.40;;;;;;215236;1296;22581;-58
2022/03/24 20:13:03;;;;;;;23.40;11.20;;;22.90;46.60;;;;;;215035;1296;25865;-58
2022/03/24 20:18:14;;;;;;;23.00;11.00;;;22.80;47.10;;;;;;214889;1296;24262;-58
2022/03/24 20:23:46;;;;;;;33.80;13.10;;;23.00;46.30;;;;;;214864;1296;22588;-59
2022/03/24 20:29:25;;;;;;;;;;;;;;;;;;;;;
2022/03/24 20:34:41;;;;;;;21.20;10.70;;;22.90;46.30;;;;;;215068;1296;24215;-50
2022/03/24 20:40:15;;;;;;;22.80;11.20;;;22.90;46.20;;;;;;215565;1296;25487;-50
2022/03/24 20:45:30;;;;;;;21.90;11.40;;;22.90;46.80;;;;;;215365;1296;24389;-55
2022/03/24 20:50:43;;;;;;;17.50;10.30;;;22.90;46.80;;;;;;215024;1296;25026;-54
2022/03/24 20:56:11;;;;;;;26.00;11.00;;;22.80;46.60;;;;;;215255;1296;22584;-52
2022/03/24 21:01:22;;;;;;;22.90;11.30;;;22.90;46.70;;;;;;215196;1296;22575;-53
2022/03/24 21:06:42;;;;;;;21.70;10.40;;;22.80;46.30;;;;;;214997;1294;22563;-51
2022/03/24 21:11:47;;;;;;;27.90;10.90;;;22.80;46.90;;;;;;215150;1295;24303;-52
2022/03/24 21:16:55;;;;;;;25.90;10.80;;;22.80;47.00;;;;;;215242;1296;25528;-53
2022/03/24 21:21:59;;;;;;;21.60;10.90;;;22.80;46.50;;;;;;215159;1296;24289;-49
2022/03/24 21:27:18;;;;;;;25.40;11.00;;;22.70;47.20;;;;;;215355;1296;25303;-48
2022/03/24 21:32:24;;;;;;;17.80;10.30;;;22.70;46.90;;;;;;215067;1296;22751;-51
2022/03/24 21:37:35;;;;;;;19.10;10.50;;;22.70;46.80;;;;;;215249;1296;22598;-56
2022/03/24 21:42:47;;;;;;;21.30;10.40;;;22.70;46.80;;;;;;215531;1296;25415;-54
2022/03/24 21:47:59;;;;;;;15.50;10.00;;;22.70;46.60;;;;;;215258;1294;23988;-55
2022/03/24 21:53:06;;;;;;;21.70;10.00;;;22.60;46.80;;;;;;215592;1296;22610;-50
2022/03/24 21:58:09;;;;;;;19.80;10.40;;;22.60;46.80;;;;;;215204;1296;25667;-55
2022/03/24 22:03:13;;;;;;;20.70;10.60;;;22.60;46.40;;;;;;215371;1296;22758;-54
2022/03/24 22:08:17;;;;;;;21.20;10.90;;;22.60;46.60;;;;;;215496;1296;22589;-53
2022/03/24 22:13:21;;;;;;;21.60;10.00;;;22.50;46.40;;;;;;214940;1296;22648;-54
2022/03/24 22:18:29;;;;;;;19.30;11.20;;;22.50;46.40;;;;;;215275;1293;25368;-51
2022/03/24 22:23:33;;;;;;;19.30;11.10;;;22.80;46.50;;;;;;215056;1293;25378;-51
2022/03/24 22:28:40;;;;;;;26.50;12.30;;;23.00;45.60;;;;;;215551;1296;24588;-55
2022/03/24 22:33:47;;;;;;;18.50;11.30;;;23.30;44.80;;;;;;215467;1296;22567;-53
2022/03/24 22:38:52;;;;;;;19.90;10.70;;;23.50;44.50;;;;;;214874;1296;24281;-51
2022/03/24 22:43:56;;;;;;;17.30;10.40;;;23.60;44.20;;;;;;215585;1294;25344;-58
2022/03/24 22:48:59;;;;;;;18.90;11.00;;;23.70;44.30;;;;;;214865;1293;25453;-52
2022/03/24 22:54:03;;;;;;;15.80;10.40;;;23.90;44.60;;;;;;215285;1293;25686;-54
2022/03/24 22:59:07;;;;;;;22.30;12.30;;;24.00;44.70;;;;;;215131;1294;22564;-51
2022/03/24 23:04:14;;;;;;;17.20;10.30;;;24.10;44.30;;;;;;215017;1294;23396;-54
2022/03/24 23:09:18;;;;;;;20.40;10.50;;;24.10;44.10;;;;;;215227;1294;25410;-55
2022/03/24 23:14:24;;;;;;;18.60;10.40;;;24.20;44.40;;;;;;215556;1296;22634;-55
2022/03/24 23:19:35;;;;;;;18.10;10.00;;;24.30;44.10;;;;;;215348;1296;23104;-55
2022/03/24 23:24:38;;;;;;;19.00;10.40;;;24.30;44.00;;;;;;215416;1296;22594;-53
2022/03/24 23:29:45;;;;;;;15.70;10.80;;;24.30;43.60;;;;;;215165;1296;22573;-52
2022/03/24 23:34:48;;;;;;;16.80;10.30;;;24.30;43.50;;;;;;215267;1296;22632;-54
2022/03/24 23:39:54;;;;;;;14.70;10.30;;;24.30;43.70;;;;;;215373;1296;24466;-56
2022/03/24 23:45:00;;;;;;;17.60;10.50;;;24.20;43.70;;;;;;215732;1296;22650;-52
2022/03/24 23:50:05;;;;;;;17.00;10.00;;;24.10;43.80;;;;;;215645;1296;22579;-52
2022/03/24 23:55:09;;;;;;;19.30;11.20;;;24.00;43.80;;;;;;214930;1295;23387;-53
